Time;durP1;ratioP1;P1;durP2;ratioP2;P2;SDS_P1;SDS_P2;PMS_P1;PMS_P2;Temp;Humidity;BMP_temperature;BMP_pressure;BME280_temperature;BME280_humidity;BME280_pressure;Samples;Min_cycle;Max_cycle;Signal;HPM_P1;HPM_P2
2023/09/25 00:01:22;;;;;;;5.85;1.88;;;13.50;99.90;;;;;;5066470;28;20042;-80
2023/09/25 00:03:47;;;;;;;5.72;1.70;;;13.50;99.90;;;;;;5049186;28;20044;-79
2023/09/25 00:06:13;;;;;;;4.05;1.80;;;13.40;99.90;;;;;;5042081;28;20045;-79
2023/09/25 00:08:39;;;;;;;3.83;1.48;;;13.50;99.90;;;;;;5025845;28;20041;-79
2023/09/25 00:11:04;;;;;;;4.80;1.67;;;13.50;99.90;;;;;;5050366;28;20040;-79
2023/09/25 00:13:30;;;;;;;4.68;1.70;;;13.50;99.90;;;;;;5017300;28;20045;-79
2023/09/25 00:15:59;;;;;;;4.45;1.45;;;13.50;99.90;;;;;;5048354;28;20484;-79
2023/09/25 00:18:28;;;;;;;6.80;2.15;;;13.50;99.90;;;;;;5041782;28;20048;-79
2023/09/25 00:20:54;;;;;;;3.83;1.77;;;13.50;99.90;;;;;;5043617;28;20499;-80
2023/09/25 00:23:21;;;;;;;4.97;1.55;;;13.50;99.90;;;;;;5049226;28;20136;-79
2023/09/25 00:25:47;;;;;;;6.97;2.10;;;13.60;99.90;;;;;;5050622;28;20065;-79
2023/09/25 00:28:12;;;;;;;4.47;1.67;;;13.60;99.90;;;;;;5043280;28;20076;-79
2023/09/25 00:30:39;;;;;;;5.43;1.73;;;13.60;99.90;;;;;;5039420;28;20061;-79
2023/09/25 00:33:06;;;;;;;5.00;1.63;;;13.60;99.90;;;;;;5040549;28;20721;-79
2023/09/25 00:35:32;;;;;;;3.10;1.48;;;13.60;99.90;;;;;;5025565;28;20140;-79
2023/09/25 00:37:58;;;;;;;5.80;2.20;;;13.70;99.90;;;;;;5039337;28;20386;-80
2023/09/25 00:40:24;;;;;;;4.18;1.70;;;13.70;99.90;;;;;;5041553;28;20041;-79
2023/09/25 00:42:53;;;;;;;4.55;1.70;;;13.70;99.90;;;;;;5044933;28;20049;-79
2023/09/25 00:45:19;;;;;;;5.10;1.77;;;13.70;99.90;;;;;;5069569;28;20037;-79
2023/09/25 00:47:46;;;;;;;3.45;1.95;;;13.70;99.90;;;;;;5057858;28;20186;-79
2023/09/25 00:50:12;;;;;;;4.97;1.75;;;13.70;99.90;;;;;;5048590;28;20052;-79
2023/09/25 00:52:42;;;;;;;4.60;1.85;;;13.60;99.90;;;;;;5048210;28;20056;-79
2023/09/25 00:55:08;;;;;;;4.32;2.50;;;13.60;99.90;;;;;;5047602;28;20133;-79
2023/09/25 00:57:39;;;;;;;5.40;2.00;;;13.60;99.90;;;;;;5051186;28;20049;-79
2023/09/25 01:00:11;;;;;;;5.15;2.30;;;13.60;99.90;;;;;;5031143;28;20078;-79
2023/09/25 01:02:38;;;;;;;4.03;2.15;;;13.60;99.90;;;;;;5045341;28;20045;-79
2023/09/25 01:05:10;;;;;;;5.15;1.80;;;13.60;99.90;;;;;;5044780;28;20045;-79
2023/09/25 01:07:37;;;;;;;6.65;2.20;;;13.60;99.90;;;;;;5039877;28;20057;-79
2023/09/25 01:10:04;;;;;;;5.25;2.13;;;13.50;99.90;;;;;;5055610;28;20041;-79
2023/09/25 01:12:32;;;;;;;4.93;2.25;;;13.50;99.90;;;;;;5053196;28;20057;-79
2023/09/25 01:15:03;;;;;;;3.83;1.95;;;13.40;99.90;;;;;;5039346;28;20056;-79
2023/09/25 01:17:30;;;;;;;5.40;2.17;;;13.50;99.90;;;;;;5047352;28;20052;-79
2023/09/25 01:19:55;;;;;;;5.50;2.33;;;13.50;99.90;;;;;;5048814;28;20118;-77
2023/09/25 01:22:21;;;;;;;4.85;2.25;;;13.40;99.90;;;;;;5047758;28;20435;-79
2023/09/25 01:24:47;;;;;;;4.07;1.92;;;13.40;99.90;;;;;;5021300;28;20041;-79
2023/09/25 01:27:13;;;;;;;4.07;1.95;;;13.40;99.90;;;;;;5052799;28;20044;-79
2023/09/25 01:29:40;;;;;;;4.43;2.03;;;13.40;99.90;;;;;;5028768;28;20132;-79
2023/09/25 01:32:07;;;;;;;6.00;2.00;;;13.30;99.90;;;;;;5053016;28;20060;-79
2023/09/25 01:34:36;;;;;;;4.25;2.15;;;13.30;99.90;;;;;;5068592;28;20079;-79
2023/09/25 01:37:05;;;;;;;6.00;1.92;;;13.30;99.90;;;;;;5028089;28;20033;-79
2023/09/25 01:39:35;;;;;;;5.60;2.30;;;13.30;99.90;;;;;;5038372;28;20102;-79
2023/09/25 01:42:01;;;;;;;4.80;2.38;;;13.30;99.90;;;;;;5050725;28;20049;-80
2023/09/25 01:44:28;;;;;;;4.75;2.15;;;13.20;99.90;;;;;;5042673;28;20049;-79
2023/09/25 01:46:55;;;;;;;6.13;2.10;;;13.20;99.90;;;;;;5035097;28;20045;-79
2023/09/25 01:49:20;;;;;;;6.03;2.28;;;13.20;99.90;;;;;;5042639;28;20053;-79
2023/09/25 01:51:46;;;;;;;5.97;2.30;;;13.20;99.90;;;;;;5040600;28;20049;-79
2023/09/25 01:54:12;;;;;;;5.40;2.28;;;13.10;99.90;;;;;;5048580;28;20044;-79
2023/09/25 01:56:37;;;;;;;4.90;2.10;;;13.10;99.90;;;;;;5045746;28;20094;-78
2023/09/25 01:59:03;;;;;;;5.28;2.33;;;13.10;99.90;;;;;;5037968;28;20041;-79
2023/09/25 02:01:29;;;;;;;4.03;2.15;;;13.10;99.90;;;;;;5074514;28;20061;-79
2023/09/25 02:03:56;;;;;;;6.00;2.50;;;13.10;99.90;;;;;;5049591;28;20057;-79
2023/09/25 02:06:22;;;;;;;5.38;2.20;;;13.10;99.90;;;;;;5041182;28;20068;-79
2023/09/25 02:08:51;;;;;;;5.25;2.20;;;13.00;99.90;;;;;;5046578;28;20500;-79
2023/09/25 02:11:18;;;;;;;6.25;2.38;;;13.00;99.90;;;;;;5050569;28;20041;-78
2023/09/25 02:13:43;;;;;;;6.68;3.08;;;13.00;99.90;;;;;;5043618;28;20378;-77
2023/09/25 02:16:09;;;;;;;5.85;2.30;;;13.00;99.90;;;;;;5038991;28;20048;-79
2023/09/25 02:18:35;;;;;;;6.50;2.22;;;12.90;99.90;;;;;;5034167;28;20051;-79
2023/09/25 02:21:00;;;;;;;4.45;2.20;;;12.90;99.90;;;;;;5038307;28;20369;-79
2023/09/25 02:23:26;;;;;;;5.05;2.10;;;12.90;99.90;;;;;;5039760;28;20037;-78
2023/09/25 02:25:52;;;;;;;4.18;2.25;;;12.90;99.90;;;;;;5039884;28;20052;-79
2023/09/25 02:28:18;;;;;;;6.43;2.30;;;12.80;99.90;;;;;;5051785;28;20052;-79
2023/09/25 02:30:44;;;;;;;3.90;1.98;;;12.80;99.90;;;;;;5044274;28;20549;-79
2023/09/25 02:33:09;;;;;;;4.60;2.00;;;12.80;99.90;;;;;;5073449;28;20049;-79
2023/09/25 02:35:36;;;;;;;4.15;2.38;;;12.80;99.90;;;;;;5050563;28;20468;-79
2023/09/25 02:38:02;;;;;;;6.30;2.70;;;12.80;99.90;;;;;;5030090;28;20511;-79
2023/09/25 02:40:28;;;;;;;6.25;2.17;;;12.80;99.90;;;;;;5043645;28;20056;-79
2023/09/25 02:42:54;;;;;;;4.80;2.58;;;12.80;99.90;;;;;;5031707;28;20049;-79
2023/09/25 02:45:19;;;;;;;7.75;2.63;;;12.80;99.90;;;;;;5044021;28;20037;-79
2023/09/25 02:47:48;;;;;;;6.28;2.70;;;12.80;99.90;;;;;;5052606;28;20044;-79
2023/09/25 02:50:15;;;;;;;6.53;2.28;;;12.80;99.90;;;;;;5039199;28;20053;-79
2023/09/25 02:52:44;;;;;;;4.07;2.10;;;12.80;99.90;;;;;;5026461;28;20075;-78
2023/09/25 02:55:11;;;;;;;4.25;2.47;;;12.70;99.90;;;;;;5049256;28;20460;-79
2023/09/25 02:57:37;;;;;;;4.80;2.60;;;12.70;99.90;;;;;;5047941;28;20045;-79
2023/09/25 03:00:09;;;;;;;3.72;2.25;;;12.70;99.90;;;;;;5046274;28;20420;-79
2023/09/25 03:02:34;;;;;;;4.25;2.15;;;12.70;99.90;;;;;;5026546;28;20053;-78
2023/09/25 03:05:00;;;;;;;6.82;2.60;;;12.70;99.90;;;;;;5025552;28;20056;-78
2023/09/25 03:07:29;;;;;;;5.00;2.22;;;12.70;99.90;;;;;;5048304;28;20397;-79
2023/09/25 03:09:56;;;;;;;5.18;2.25;;;12.60;99.90;;;;;;5048290;28;20044;-79
2023/09/25 03:12:22;;;;;;;5.45;2.80;;;12.60;99.90;;;;;;5031530;28;20083;-79
2023/09/25 03:14:47;;;;;;;6.00;2.53;;;12.70;99.90;;;;;;5044163;28;20123;-78
2023/09/25 03:17:13;;;;;;;5.95;2.67;;;12.70;99.90;;;;;;5046142;28;20045;-78
2023/09/25 03:19:40;;;;;;;5.30;2.22;;;12.60;99.90;;;;;;5050264;28;20492;-79
2023/09/25 03:22:08;;;;;;;6.00;2.35;;;12.60;99.90;;;;;;5048102;28;20045;-79
2023/09/25 03:24:35;;;;;;;5.20;2.03;;;12.50;99.90;;;;;;5038531;28;20175;-79
2023/09/25 03:27:00;;;;;;;5.05;2.75;;;12.60;99.90;;;;;;5045416;28;20052;-78
2023/09/25 03:29:27;;;;;;;5.28;2.58;;;12.60;99.90;;;;;;5023621;28;20061;-79
2023/09/25 03:31:54;;;;;;;7.03;2.85;;;12.50;99.90;;;;;;5041056;28;20511;-79
2023/09/25 03:34:20;;;;;;;6.47;2.75;;;12.50;99.90;;;;;;5065078;28;20064;-78
2023/09/25 03:36:46;;;;;;;4.88;2.70;;;12.50;99.90;;;;;;5065571;28;20045;-78
2023/09/25 03:39:12;;;;;;;5.60;2.35;;;12.50;99.90;;;;;;5041399;28;20120;-79
2023/09/25 03:41:37;;;;;;;6.05;2.63;;;12.50;99.90;;;;;;5040192;28;20053;-79
2023/09/25 03:44:04;;;;;;;5.03;2.28;;;12.50;99.90;;;;;;5020570;28;20513;-79
2023/09/25 03:46:30;;;;;;;5.18;2.63;;;12.50;99.90;;;;;;5047681;28;20041;-79
2023/09/25 03:48:55;;;;;;;5.47;2.45;;;12.50;99.90;;;;;;5044303;28;20037;-79
2023/09/25 03:51:21;;;;;;;4.70;2.53;;;12.50;99.90;;;;;;5040404;28;20064;-78
2023/09/25 03:53:46;;;;;;;5.30;2.70;;;12.50;99.90;;;;;;5038343;28;20045;-78
2023/09/25 03:56:12;;;;;;;5.57;2.60;;;12.50;99.90;;;;;;5032613;28;20808;-78
2023/09/25 03:58:42;;;;;;;6.90;2.30;;;12.40;99.90;;;;;;5021254;28;20056;-79
2023/09/25 04:01:08;;;;;;;4.97;2.92;;;12.50;99.90;;;;;;5041131;28;20059;-78
2023/09/25 04:03:33;;;;;;;6.00;2.42;;;12.50;99.90;;;;;;5041239;28;20408;-77
2023/09/25 04:05:59;;;;;;;5.32;2.45;;;12.40;99.90;;;;;;5032274;28;20052;-78
2023/09/25 04:08:28;;;;;;;8.40;2.70;;;12.50;99.90;;;;;;5043491;28;20053;-78
2023/09/25 04:10:53;;;;;;;7.72;2.80;;;12.50;99.90;;;;;;5050127;28;20045;-79
2023/09/25 04:13:22;;;;;;;11.38;3.05;;;12.40;99.90;;;;;;5045929;28;20413;-78
2023/09/25 04:15:50;;;;;;;4.65;2.70;;;12.40;99.90;;;;;;5053365;28;20103;-79
2023/09/25 04:18:18;;;;;;;5.10;2.92;;;12.40;99.90;;;;;;5033644;28;20484;-78
2023/09/25 04:20:44;;;;;;;5.50;2.42;;;12.40;99.90;;;;;;5052683;28;20056;-78
2023/09/25 04:23:12;;;;;;;4.22;2.28;;;12.40;99.90;;;;;;5049661;28;20121;-78
2023/09/25 04:25:38;;;;;;;5.97;2.97;;;12.40;99.90;;;;;;5083494;28;20044;-79
2023/09/25 04:28:05;;;;;;;5.43;3.13;;;12.40;99.90;;;;;;5054005;28;20064;-79
2023/09/25 04:30:31;;;;;;;6.85;2.65;;;12.40;99.90;;;;;;5054188;28;20071;-79
2023/09/25 04:32:57;;;;;;;5.30;2.80;;;12.40;99.90;;;;;;5050116;28;20457;-78
2023/09/25 04:35:24;;;;;;;4.85;2.80;;;12.40;99.90;;;;;;5046101;28;20050;-79
2023/09/25 04:37:53;;;;;;;5.93;3.15;;;12.40;99.90;;;;;;5043822;28;20077;-78
2023/09/25 04:40:22;;;;;;;5.65;2.80;;;12.40;99.90;;;;;;5042815;28;20063;-79
2023/09/25 04:42:49;;;;;;;7.28;2.92;;;12.40;99.90;;;;;;5042116;28;20045;-78
2023/09/25 04:45:18;;;;;;;5.90;2.80;;;12.50;99.90;;;;;;5036859;28;20052;-79
2023/09/25 04:47:51;;;;;;;6.85;2.55;;;12.40;99.90;;;;;;5041640;28;20041;-79
2023/09/25 04:50:17;;;;;;;6.80;4.28;;;12.40;99.90;;;;;;5048095;28;20045;-78
2023/09/25 04:52:44;;;;;;;4.35;2.50;;;12.40;99.90;;;;;;5049712;28;20041;-79
2023/09/25 04:55:11;;;;;;;5.45;3.10;;;12.40;99.90;;;;;;5049887;28;20132;-78
2023/09/25 04:57:45;;;;;;;6.90;2.70;;;12.40;99.90;;;;;;5041206;28;20049;-79
2023/09/25 05:00:15;;;;;;;5.25;2.95;;;12.30;99.90;;;;;;5042619;28;20056;-79
2023/09/25 05:02:44;;;;;;;6.43;2.88;;;12.30;99.90;;;;;;5044793;28;20056;-77
2023/09/25 05:05:10;;;;;;;4.45;2.85;;;12.30;99.90;;;;;;5033501;28;20044;-77
2023/09/25 05:07:36;;;;;;;5.32;2.70;;;12.40;99.90;;;;;;5037125;28;20055;-78
2023/09/25 05:10:02;;;;;;;6.30;3.33;;;12.40;99.90;;;;;;5036236;28;20049;-81
2023/09/25 05:12:28;;;;;;;7.20;2.97;;;12.30;99.90;;;;;;5053542;28;20052;-80
2023/09/25 05:14:54;;;;;;;7.18;3.10;;;12.30;99.90;;;;;;5051003;28;20044;-77
2023/09/25 05:17:19;;;;;;;5.95;3.20;;;12.30;99.90;;;;;;5045168;28;20037;-77
2023/09/25 05:19:45;;;;;;;5.05;2.65;;;12.30;99.90;;;;;;5047606;28;20099;-82
2023/09/25 05:22:11;;;;;;;5.47;2.78;;;12.30;99.90;;;;;;5051873;28;20041;-80
2023/09/25 05:24:40;;;;;;;5.82;2.70;;;12.30;99.90;;;;;;5046117;28;20098;-79
2023/09/25 05:27:05;;;;;;;6.00;3.10;;;12.30;99.90;;;;;;5045749;28;20042;-79
2023/09/25 05:29:31;;;;;;;6.80;2.78;;;12.30;99.90;;;;;;5051289;28;20048;-79
2023/09/25 05:31:57;;;;;;;6.75;2.80;;;12.30;99.90;;;;;;5053669;28;20080;-78
2023/09/25 05:34:23;;;;;;;5.38;2.92;;;12.30;99.90;;;;;;5030044;28;20048;-79
2023/09/25 05:36:48;;;;;;;5.03;2.65;;;12.30;99.90;;;;;;5051003;28;20598;-79
2023/09/25 05:39:15;;;;;;;5.13;2.53;;;12.30;99.90;;;;;;5041798;28;20136;-79
2023/09/25 05:41:41;;;;;;;6.43;2.92;;;12.30;99.90;;;;;;5047435;28;20527;-79
2023/09/25 05:44:06;;;;;;;6.00;2.92;;;12.30;99.90;;;;;;5044904;28;20050;-78
2023/09/25 05:46:32;;;;;;;5.47;2.83;;;12.30;99.90;;;;;;5031991;28;20042;-79
2023/09/25 05:48:59;;;;;;;4.95;2.70;;;12.30;99.90;;;;;;5022476;28;20405;-79
2023/09/25 05:51:25;;;;;;;5.55;2.63;;;12.30;99.90;;;;;;5043812;28;20045;-81
2023/09/25 05:53:51;;;;;;;5.13;2.47;;;12.30;99.90;;;;;;5039599;28;20452;-81
2023/09/25 05:56:17;;;;;;;7.85;2.80;;;12.30;99.90;;;;;;5040265;28;20103;-80
2023/09/25 05:58:43;;;;;;;6.78;2.95;;;12.30;99.90;;;;;;5039821;28;20049;-79
2023/09/25 06:01:08;;;;;;;5.25;2.90;;;12.30;99.90;;;;;;5069236;28;20397;-81
2023/09/25 06:03:35;;;;;;;7.05;3.45;;;12.40;99.90;;;;;;5039718;28;20464;-79
2023/09/25 06:06:00;;;;;;;5.22;2.85;;;12.40;99.90;;;;;;5040933;28;20060;-79
2023/09/25 06:08:26;;;;;;;5.15;2.50;;;12.40;99.90;;;;;;5040259;28;20102;-79
2023/09/25 06:11:02;;;;;;;5.97;2.83;;;12.40;99.90;;;;;;5043098;28;20100;-80
2023/09/25 06:13:30;;;;;;;6.03;2.50;;;12.40;99.90;;;;;;5042369;28;20076;-79
2023/09/25 06:15:56;;;;;;;5.22;2.25;;;12.40;99.90;;;;;;5031254;28;20473;-77
2023/09/25 06:18:22;;;;;;;5.75;2.42;;;12.50;99.90;;;;;;5041708;28;20536;-77
2023/09/25 06:20:48;;;;;;;7.43;2.70;;;12.50;99.90;;;;;;5048605;28;20084;-75
2023/09/25 06:23:17;;;;;;;4.88;2.53;;;12.50;99.90;;;;;;5043863;28;20519;-77
2023/09/25 06:25:44;;;;;;;5.18;2.50;;;12.50;99.90;;;;;;5032037;28;20045;-76
2023/09/25 06:28:14;;;;;;;6.68;2.28;;;12.60;99.90;;;;;;5051371;28;20055;-76
2023/09/25 06:30:41;;;;;;;5.32;2.70;;;12.60;99.90;;;;;;5051403;28;20041;-76
2023/09/25 06:33:07;;;;;;;4.55;2.53;;;12.60;99.90;;;;;;5051527;28;20419;-76
2023/09/25 06:35:33;;;;;;;6.28;2.40;;;12.60;99.90;;;;;;5051937;28;20061;-78
2023/09/25 06:37:59;;;;;;;4.90;2.13;;;12.70;99.90;;;;;;5051895;28;20059;-77
2023/09/25 06:40:26;;;;;;;6.05;2.80;;;12.70;99.90;;;;;;5052381;28;20044;-76
2023/09/25 06:42:51;;;;;;;4.13;2.75;;;12.70;99.90;;;;;;5052052;28;20106;-76
2023/09/25 06:45:18;;;;;;;4.93;2.50;;;12.70;99.90;;;;;;5052406;28;20098;-76
2023/09/25 06:47:46;;;;;;;5.47;2.83;;;12.80;99.90;;;;;;5052195;28;20057;-77
2023/09/25 06:50:12;;;;;;;6.18;2.33;;;12.80;99.90;;;;;;5053237;28;20080;-76
2023/09/25 06:52:40;;;;;;;5.90;2.33;;;12.80;99.90;;;;;;5034442;28;20091;-76
2023/09/25 06:55:06;;;;;;;5.65;2.25;;;12.90;99.90;;;;;;5050786;28;20041;-76
2023/09/25 06:57:32;;;;;;;6.13;2.10;;;12.90;99.90;;;;;;5050763;28;20055;-75
2023/09/25 06:59:58;;;;;;;4.95;2.38;;;12.90;99.90;;;;;;5050789;28;20690;-77
2023/09/25 07:02:25;;;;;;;5.35;2.47;;;13.00;99.90;;;;;;5049769;28;20076;-76
2023/09/25 07:04:51;;;;;;;4.53;2.25;;;13.00;99.90;;;;;;5050702;28;20467;-76
2023/09/25 07:07:16;;;;;;;4.00;2.17;;;13.10;99.90;;;;;;5041745;28;20037;-75
2023/09/25 07:09:43;;;;;;;4.60;2.40;;;13.10;99.90;;;;;;5037409;28;20430;-75
2023/09/25 07:12:12;;;;;;;4.97;1.92;;;13.10;99.90;;;;;;5040454;28;20044;-75
2023/09/25 07:14:38;;;;;;;8.00;2.55;;;13.20;99.90;;;;;;5038846;28;20064;-75
2023/09/25 07:17:03;;;;;;;5.45;2.13;;;13.20;99.90;;;;;;5038009;28;20045;-76
2023/09/25 07:19:29;;;;;;;4.70;2.13;;;13.20;99.90;;;;;;5042672;28;20053;-76
2023/09/25 07:21:55;;;;;;;6.45;2.35;;;13.30;99.90;;;;;;5040704;28;20365;-75
2023/09/25 07:24:21;;;;;;;6.63;2.70;;;13.30;99.90;;;;;;5036404;28;20128;-76
2023/09/25 07:26:46;;;;;;;6.30;2.25;;;13.30;99.90;;;;;;5037092;28;20060;-75
2023/09/25 07:29:12;;;;;;;5.70;2.20;;;13.40;99.90;;;;;;5041779;28;20045;-74
2023/09/25 07:31:38;;;;;;;5.18;1.90;;;13.40;99.90;;;;;;5042122;28;20059;-76
2023/09/25 07:34:05;;;;;;;4.75;2.03;;;13.40;99.90;;;;;;5025240;28;20107;-75
2023/09/25 07:36:30;;;;;;;4.65;2.00;;;13.50;99.90;;;;;;5037032;28;20191;-75
2023/09/25 07:38:56;;;;;;;5.95;2.60;;;13.60;99.90;;;;;;5043738;28;20119;-74
2023/09/25 07:41:24;;;;;;;7.32;2.20;;;13.60;99.90;;;;;;5044760;28;20044;-75
2023/09/25 07:43:49;;;;;;;6.20;2.20;;;13.60;99.90;;;;;;5040746;28;20069;-77
2023/09/25 07:46:17;;;;;;;5.93;2.15;;;13.70;99.90;;;;;;5040577;28;20171;-76
2023/09/25 07:48:43;;;;;;;5.20;2.05;;;13.60;99.90;;;;;;5037945;28;20114;-76
2023/09/25 07:51:09;;;;;;;3.92;2.10;;;13.70;99.90;;;;;;5043365;28;20135;-76
2023/09/25 07:53:34;;;;;;;4.50;2.03;;;13.80;99.90;;;;;;5061578;28;20045;-76
2023/09/25 07:56:00;;;;;;;6.60;2.08;;;13.90;99.90;;;;;;5041526;28;20182;-76
2023/09/25 07:58:29;;;;;;;4.07;2.03;;;13.90;99.90;;;;;;5039507;28;20045;-76
2023/09/25 08:01:07;;;;;;;5.40;2.20;;;14.00;99.90;;;;;;5040468;28;20084;-77
2023/09/25 08:03:33;;;;;;;4.72;2.25;;;14.10;99.90;;;;;;5043112;28;20049;-77
2023/09/25 08:06:04;;;;;;;4.32;2.05;;;14.10;99.90;;;;;;5038136;28;20045;-76
2023/09/25 08:08:31;;;;;;;5.57;2.10;;;14.20;99.90;;;;;;5036966;28;20505;-78
2023/09/25 08:10:57;;;;;;;5.30;2.22;;;14.30;99.90;;;;;;5043518;28;20546;-77
2023/09/25 08:13:22;;;;;;;4.25;1.80;;;14.40;99.90;;;;;;5043315;28;20080;-78
2023/09/25 08:15:48;;;;;;;6.75;2.10;;;14.40;99.90;;;;;;5042657;28;20084;-78
2023/09/25 08:18:14;;;;;;;6.05;2.00;;;14.40;99.90;;;;;;5039433;28;20411;-78
2023/09/25 08:20:40;;;;;;;5.63;1.98;;;14.50;99.90;;;;;;5042806;28;20052;-78
2023/09/25 08:23:05;;;;;;;4.82;1.80;;;14.60;99.90;;;;;;5024206;28;20044;-77
2023/09/25 08:25:31;;;;;;;5.60;2.05;;;14.70;99.90;;;;;;5042329;28;20053;-77
2023/09/25 08:27:56;;;;;;;4.85;1.85;;;14.70;99.90;;;;;;5045286;28;20386;-76
2023/09/25 08:30:22;;;;;;;4.38;1.75;;;14.80;99.90;;;;;;5074122;28;20052;-78
2023/09/25 08:32:49;;;;;;;4.60;2.05;;;14.80;99.90;;;;;;5037873;28;20061;-76
2023/09/25 08:35:14;;;;;;;4.43;1.60;;;14.90;99.90;;;;;;5041757;28;20053;-76
2023/09/25 08:37:40;;;;;;;6.10;1.55;;;15.00;99.90;;;;;;5038399;28;20050;-76
2023/09/25 08:40:06;;;;;;;3.85;1.75;;;15.00;99.90;;;;;;5037277;28;20385;-77
2023/09/25 08:42:32;;;;;;;5.75;1.45;;;15.10;99.90;;;;;;5024252;28;20088;-77
2023/09/25 08:45:03;;;;;;;5.05;2.20;;;15.20;99.90;;;;;;5039316;28;20045;-77
2023/09/25 08:47:31;;;;;;;4.60;1.60;;;15.20;99.90;;;;;;5032617;28;20493;-76
2023/09/25 08:49:57;;;;;;;5.55;2.00;;;15.30;99.90;;;;;;5039913;28;20045;-76
2023/09/25 08:52:23;;;;;;;5.55;1.60;;;15.30;99.90;;;;;;5041409;28;20041;-77
2023/09/25 08:54:50;;;;;;;4.50;1.50;;;15.30;99.90;;;;;;5075104;28;20120;-76
2023/09/25 08:57:17;;;;;;;4.70;1.50;;;15.40;99.90;;;;;;5042549;28;20076;-76
2023/09/25 08:59:48;;;;;;;4.53;1.60;;;15.50;99.90;;;;;;5041946;28;20053;-77
2023/09/25 09:02:15;;;;;;;4.60;1.73;;;15.50;99.90;;;;;;5047240;28;20041;-76
2023/09/25 09:04:41;;;;;;;4.47;1.88;;;15.50;99.90;;;;;;5044810;28;20049;-75
2023/09/25 09:07:11;;;;;;;7.95;1.92;;;15.60;99.90;;;;;;5046001;28;20052;-76
2023/09/25 09:09:37;;;;;;;4.95;1.85;;;15.70;99.90;;;;;;5043725;28;20053;-73
2023/09/25 09:12:03;;;;;;;5.47;1.77;;;15.80;99.90;;;;;;5043336;28;20081;-76
2023/09/25 09:14:43;;;;;;;5.50;1.98;;;15.90;99.90;;;;;;5041307;28;20045;-76
2023/09/25 09:17:10;;;;;;;3.60;1.52;;;16.00;99.90;;;;;;5074468;28;20057;-76
2023/09/25 09:19:48;;;;;;;3.97;1.67;;;16.00;99.90;;;;;;5044175;28;20149;-75
2023/09/25 09:22:16;;;;;;;5.72;2.00;;;16.10;99.90;;;;;;5072016;28;20516;-77
2023/09/25 09:24:43;;;;;;;5.05;1.80;;;16.10;99.90;;;;;;5043069;28;20041;-76
2023/09/25 09:27:11;;;;;;;4.38;1.58;;;16.20;99.90;;;;;;5044720;28;20590;-77
2023/09/25 09:29:38;;;;;;;3.97;1.60;;;16.30;99.90;;;;;;5014624;28;20049;-76
2023/09/25 09:32:06;;;;;;;5.40;1.50;;;16.40;99.90;;;;;;5031062;28;20098;-77
2023/09/25 09:34:33;;;;;;;4.10;1.35;;;16.60;99.90;;;;;;5046426;28;20053;-75
2023/09/25 09:36:59;;;;;;;5.28;1.50;;;16.70;99.90;;;;;;5046046;28;20416;-74
2023/09/25 09:39:34;;;;;;;4.70;1.35;;;16.80;99.90;;;;;;5046534;28;20504;-73
2023/09/25 09:42:07;;;;;;;4.65;1.35;;;16.80;99.90;;;;;;5038649;28;20489;-73
2023/09/25 09:44:33;;;;;;;4.38;1.67;;;16.90;99.90;;;;;;5044221;28;20048;-72
2023/09/25 09:47:04;;;;;;;3.53;1.52;;;16.90;99.90;;;;;;5044261;28;20107;-74
2023/09/25 09:49:34;;;;;;;3.78;1.65;;;17.00;99.90;;;;;;5047116;28;20416;-74
2023/09/25 09:52:04;;;;;;;4.32;1.40;;;17.10;99.90;;;;;;5044249;28;20057;-73
2023/09/25 09:54:42;;;;;;;5.40;1.50;;;17.20;99.90;;;;;;5045364;28;20037;-74
2023/09/25 09:57:08;;;;;;;4.72;1.45;;;17.40;99.90;;;;;;5047763;28;20456;-72
2023/09/25 09:59:34;;;;;;;5.65;2.00;;;17.40;99.90;;;;;;5040638;28;20057;-72
2023/09/25 10:02:02;;;;;;;5.68;1.95;;;17.40;99.90;;;;;;5047768;28;20370;-72
2023/09/25 10:04:28;;;;;;;6.57;1.63;;;17.50;99.90;;;;;;5041817;28;20504;-72
2023/09/25 10:07:05;;;;;;;4.35;1.65;;;17.60;99.90;;;;;;5042386;28;20060;-73
2023/09/25 10:09:31;;;;;;;3.30;1.35;;;17.60;99.90;;;;;;5071984;28;20049;-73
2023/09/25 10:11:58;;;;;;;4.75;1.50;;;17.70;99.90;;;;;;5044379;28;20052;-72
2023/09/25 10:14:25;;;;;;;4.63;1.50;;;17.80;99.90;;;;;;5045992;28;20051;-73
2023/09/25 10:16:52;;;;;;;3.75;1.50;;;17.80;99.90;;;;;;5047233;28;20127;-73
2023/09/25 10:19:20;;;;;;;6.88;2.03;;;17.90;99.90;;;;;;5044632;28;20140;-73
2023/09/25 10:22:21;;;;;;;6.00;1.85;;;17.90;99.90;;;;;;5041199;28;20582;-72
2023/09/25 10:25:09;;;;;;;5.35;1.50;;;18.00;99.90;;;;;;5045759;28;20045;-71
2023/09/25 10:27:36;;;;;;;5.07;1.80;;;18.10;99.90;;;;;;5040252;28;20115;-72
2023/09/25 10:30:06;;;;;;;4.80;1.70;;;18.20;99.90;;;;;;5044914;28;20060;-73
2023/09/25 10:32:35;;;;;;;3.67;1.30;;;18.20;99.90;;;;;;5045206;28;20041;-73
2023/09/25 10:35:43;;;;;;;3.85;1.70;;;18.20;99.90;;;;;;5037645;28;20548;-73
2023/09/25 10:38:13;;;;;;;7.28;1.67;;;18.30;99.90;;;;;;5044056;28;20052;-74
2023/09/25 10:40:44;;;;;;;7.28;1.88;;;18.30;99.90;;;;;;5043785;28;20057;-73
2023/09/25 10:43:09;;;;;;;4.68;1.60;;;18.40;99.90;;;;;;5043793;28;20051;-73
2023/09/25 10:45:37;;;;;;;5.35;1.60;;;18.50;99.90;;;;;;5042880;28;20127;-72
2023/09/25 10:48:03;;;;;;;7.20;2.05;;;18.60;99.90;;;;;;5045306;28;20041;-73
2023/09/25 10:50:29;;;;;;;5.88;1.70;;;18.60;99.90;;;;;;5041126;28;20056;-74
2023/09/25 10:52:56;;;;;;;4.95;1.60;;;18.70;99.90;;;;;;5041930;28;20049;-73
2023/09/25 10:55:21;;;;;;;6.57;1.70;;;18.70;99.90;;;;;;5043998;28;20057;-73
2023/09/25 10:57:47;;;;;;;5.65;1.60;;;18.80;99.90;;;;;;5043395;28;20122;-72
2023/09/25 11:00:17;;;;;;;5.05;1.67;;;18.80;99.90;;;;;;5041942;28;20404;-75
2023/09/25 11:02:42;;;;;;;6.25;1.63;;;18.80;99.90;;;;;;5046234;28;20053;-73
2023/09/25 11:05:13;;;;;;;4.45;1.40;;;18.90;99.90;;;;;;5042374;28;20060;-73
2023/09/25 11:07:39;;;;;;;4.72;1.73;;;19.00;99.90;;;;;;5043449;28;20546;-74
2023/09/25 11:10:07;;;;;;;5.80;1.98;;;19.10;99.90;;;;;;5040944;28;20042;-74
2023/09/25 11:12:33;;;;;;;4.18;1.77;;;19.30;99.90;;;;;;5043502;28;20048;-74
2023/09/25 11:14:59;;;;;;;6.03;1.85;;;19.40;99.90;;;;;;5046332;28;20102;-74
2023/09/25 11:17:26;;;;;;;4.90;1.75;;;19.50;99.90;;;;;;5041357;28;20052;-74
2023/09/25 11:19:52;;;;;;;3.78;1.52;;;19.60;99.90;;;;;;5044023;28;20080;-74
2023/09/25 11:22:25;;;;;;;5.47;1.85;;;19.70;99.90;;;;;;5036380;28;20076;-73
2023/09/25 11:24:54;;;;;;;4.80;1.73;;;19.80;99.90;;;;;;5040667;28;20606;-74
2023/09/25 11:27:20;;;;;;;5.60;1.75;;;19.80;99.90;;;;;;5038783;28;20040;-75
2023/09/25 11:29:49;;;;;;;3.88;1.42;;;19.90;99.90;;;;;;5038410;28;20432;-74
2023/09/25 11:32:16;;;;;;;5.60;1.30;;;19.90;99.90;;;;;;5041468;28;20120;-74
2023/09/25 11:34:43;;;;;;;5.97;1.85;;;20.00;99.90;;;;;;5040139;28;20072;-75
2023/09/25 11:37:22;;;;;;;4.82;1.50;;;20.20;99.90;;;;;;5041350;28;20057;-74
2023/09/25 11:39:48;;;;;;;5.35;1.75;;;20.20;99.90;;;;;;5023672;28;20056;-74
2023/09/25 11:42:15;;;;;;;5.43;1.60;;;20.30;99.90;;;;;;5047725;28;20504;-75
2023/09/25 11:44:40;;;;;;;4.68;1.30;;;20.40;99.90;;;;;;5036653;28;20147;-75
2023/09/25 11:47:06;;;;;;;5.68;1.92;;;20.50;99.90;;;;;;5036605;28;20128;-74
2023/09/25 11:49:32;;;;;;;8.48;1.65;;;20.50;99.90;;;;;;5038432;28;20511;-75
2023/09/25 11:51:58;;;;;;;5.65;1.55;;;20.60;99.90;;;;;;5040610;28;20115;-74
2023/09/25 11:54:23;;;;;;;5.80;1.55;;;20.60;99.90;;;;;;5070807;28;20457;-74
2023/09/25 11:56:49;;;;;;;5.95;1.75;;;20.60;99.90;;;;;;5076145;28;20507;-75
2023/09/25 11:59:16;;;;;;;6.88;1.63;;;20.70;99.90;;;;;;5040912;28;20128;-75
2023/09/25 12:01:42;;;;;;;6.25;1.70;;;20.70;99.90;;;;;;5038083;28;20083;-73
2023/09/25 12:04:12;;;;;;;4.85;1.70;;;20.70;99.90;;;;;;5044951;28;20045;-73
2023/09/25 12:06:37;;;;;;;4.25;1.83;;;20.60;99.90;;;;;;5045993;28;20045;-74
2023/09/25 12:09:11;;;;;;;4.97;1.90;;;20.50;99.90;;;;;;5040706;28;20519;-75
2023/09/25 12:11:40;;;;;;;4.82;1.50;;;20.50;99.90;;;;;;5041170;28;20048;-74
2023/09/25 12:14:06;;;;;;;4.03;1.45;;;20.50;99.90;;;;;;5042920;28;20048;-75
2023/09/25 12:16:33;;;;;;;4.45;1.50;;;20.50;99.90;;;;;;5042532;28;20503;-75
2023/09/25 12:18:59;;;;;;;4.97;1.70;;;20.50;99.90;;;;;;5040964;28;20049;-75
2023/09/25 12:21:24;;;;;;;5.10;1.40;;;20.50;99.90;;;;;;5040453;28;20078;-76
2023/09/25 12:23:50;;;;;;;4.03;1.33;;;20.40;99.90;;;;;;5044600;28;20045;-75
2023/09/25 12:26:16;;;;;;;5.78;1.80;;;20.40;99.90;;;;;;5039135;28;20043;-76
2023/09/25 12:28:42;;;;;;;4.40;1.50;;;20.40;99.90;;;;;;5038261;28;20053;-75
2023/09/25 12:31:08;;;;;;;5.00;1.52;;;20.40;99.90;;;;;;5040458;28;20116;-75
2023/09/25 12:33:33;;;;;;;4.85;1.60;;;20.40;99.90;;;;;;5040791;28;20132;-74
2023/09/25 12:35:59;;;;;;;7.47;1.83;;;20.40;99.90;;;;;;5042808;28;20152;-75
2023/09/25 12:38:25;;;;;;;4.78;1.58;;;20.50;99.90;;;;;;5071690;28;20045;-75
2023/09/25 12:40:51;;;;;;;4.20;1.50;;;20.60;99.90;;;;;;5047495;28;20040;-75
2023/09/25 12:43:17;;;;;;;5.07;1.42;;;20.60;99.90;;;;;;5048175;28;20131;-74
2023/09/25 12:45:42;;;;;;;4.90;1.48;;;20.70;99.90;;;;;;5044381;28;20041;-76
2023/09/25 12:48:09;;;;;;;4.38;1.50;;;20.70;99.90;;;;;;5040310;28;20056;-75